createdAt,value
2022-12-20T00:03:39.449Z,-2.53
2022-12-20T00:08:42.570Z,-2.49
2022-12-20T00:13:47.599Z,-2.50
2022-12-20T00:18:58.134Z,-2.49
2022-12-20T00:24:01.867Z,-2.50
2022-12-20T00:29:06.483Z,-2.48
2022-12-20T00:34:09.599Z,-2.48
2022-12-20T00:39:12.557Z,-2.46
2022-12-20T00:44:15.440Z,-2.45
2022-12-20T00:49:18.409Z,-2.45
2022-12-20T00:54:21.359Z,-2.46
2022-12-20T00:59:24.150Z,-2.44
2022-12-20T01:04:27.021Z,-2.47
2022-12-20T01:09:29.752Z,-2.51
2022-12-20T01:14:33.757Z,-2.57
2022-12-20T01:19:38.259Z,-2.60
2022-12-20T01:24:41.106Z,-2.62
2022-12-20T01:29:44.580Z,-2.64
2022-12-20T01:34:47.510Z,-2.65
2022-12-20T01:39:50.445Z,-2.67
2022-12-20T01:44:58.140Z,-2.68
2022-12-20T01:50:04.810Z,-2.70
2022-12-20T01:55:17.201Z,-2.70
2022-12-20T02:00:21.182Z,-2.73
2022-12-20T02:05:24.245Z,-2.74
2022-12-20T02:10:50.252Z,-2.75
2022-12-20T02:15:58.282Z,-2.80
2022-12-20T02:21:34.237Z,-2.80
2022-12-20T02:27:21.620Z,-2.80
2022-12-20T02:32:36.167Z,-2.78
2022-12-20T02:37:53.421Z,-2.75
2022-12-20T02:43:03.363Z,-2.71
2022-12-20T02:48:11.029Z,-2.66
2022-12-20T02:53:16.329Z,-2.64
2022-12-20T02:59:02.363Z,-2.60
2022-12-20T03:04:05.841Z,-2.58
2022-12-20T03:09:08.728Z,-2.54
2022-12-20T03:14:11.771Z,-2.51
2022-12-20T03:19:14.664Z,-2.47
2022-12-20T03:24:17.861Z,-2.46
2022-12-20T03:29:20.563Z,-2.45
2022-12-20T03:34:24.390Z,-2.43
2022-12-20T03:39:27.229Z,-2.40
2022-12-20T03:44:30.126Z,-2.39
2022-12-20T03:49:33.456Z,-2.35
2022-12-20T03:54:36.467Z,-2.33
2022-12-20T03:59:39.407Z,-2.29
2022-12-20T04:04:42.638Z,-2.26
2022-12-20T04:09:45.627Z,-2.24
2022-12-20T04:14:48.615Z,-2.23
2022-12-20T04:19:51.557Z,-2.22
2022-12-20T04:24:54.482Z,-2.20
2022-12-20T04:29:57.367Z,-2.19
2022-12-20T04:35:00.332Z,-2.17
2022-12-20T04:40:03.917Z,-2.16
2022-12-20T04:45:08.333Z,-2.14
2022-12-20T04:50:11.344Z,-2.11
2022-12-20T04:55:14.313Z,-2.10
2022-12-20T05:00:17.757Z,-2.10
2022-12-20T05:05:20.989Z,-2.07
2022-12-20T05:10:24.093Z,-2.06
2022-12-20T05:15:27.070Z,-2.03
2022-12-20T05:20:32.189Z,-2.02
2022-12-20T05:26:10.007Z,-2.01
2022-12-20T05:31:13.114Z,-1.99
2022-12-20T05:36:16.605Z,-1.98
2022-12-20T05:41:20.051Z,-1.97
2022-12-20T05:46:23.072Z,-1.98
2022-12-20T05:51:26.087Z,-1.99
2022-12-20T05:56:28.993Z,-2.03
2022-12-20T06:01:32.228Z,-2.02
2022-12-20T06:06:35.351Z,-2.06
2022-12-20T06:11:38.484Z,-2.06
2022-12-20T06:16:41.596Z,-2.06
2022-12-20T06:21:45.327Z,-2.06
2022-12-20T06:26:48.271Z,-2.06
2022-12-20T06:31:51.267Z,-2.07
2022-12-20T06:36:54.316Z,-2.13
2022-12-20T06:41:57.208Z,-2.15
2022-12-20T06:47:02.032Z,-2.14
2022-12-20T06:52:06.227Z,-2.14
2022-12-20T06:57:09.020Z,-2.12
2022-12-20T07:02:12.885Z,-2.07
2022-12-20T07:07:17.215Z,-2.01
2022-12-20T07:12:20.612Z,-1.95
2022-12-20T07:17:23.428Z,-1.92
2022-12-20T07:22:26.635Z,-1.89
2022-12-20T07:27:29.548Z,-1.84
2022-12-20T07:32:32.816Z,-1.82
2022-12-20T07:37:36.670Z,-1.80
2022-12-20T07:42:46.160Z,-1.78
2022-12-20T07:47:51.331Z,-1.69
2022-12-20T07:52:55.144Z,-1.60
2022-12-20T07:58:04.982Z,-1.56
2022-12-20T08:03:23.433Z,-1.55
2022-12-20T08:08:26.787Z,-1.53
2022-12-20T08:13:29.671Z,-1.53
2022-12-20T08:18:32.603Z,-1.44
2022-12-20T08:23:35.552Z,-1.28
2022-12-20T08:28:38.513Z,-0.86
2022-12-20T08:33:41.591Z,-0.49
2022-12-20T08:38:44.488Z,-0.36
2022-12-20T08:43:47.431Z,-0.27
2022-12-20T08:48:50.334Z,-0.20
2022-12-20T08:53:53.397Z,-0.18
2022-12-20T08:58:56.194Z,-0.15
2022-12-20T09:03:59.571Z,-0.13
2022-12-20T09:09:03.568Z,-0.09
2022-12-20T09:14:08.238Z,-0.13
2022-12-20T09:19:13.847Z,-0.13
2022-12-20T09:24:17.424Z,-0.15
2022-12-20T09:29:27.081Z,-0.15
2022-12-20T09:34:33.022Z,-0.11
2022-12-20T09:39:37.725Z,0.08
2022-12-20T09:44:42.903Z,0.26
2022-12-20T09:49:51.009Z,0.32
2022-12-20T09:55:34.647Z,0.40
2022-12-20T10:00:51.885Z,0.39
2022-12-20T10:06:04.789Z,0.37
2022-12-20T10:11:51.260Z,0.39
2022-12-20T10:17:15.754Z,0.45
2022-12-20T10:22:26.182Z,0.47
2022-12-20T10:27:29.539Z,0.55
2022-12-20T10:32:33.538Z,0.71
2022-12-20T10:37:36.726Z,0.87
2022-12-20T10:42:43.277Z,0.86
2022-12-20T10:47:48.479Z,0.80
2022-12-20T10:53:25.630Z,0.74
2022-12-20T10:58:30.310Z,0.87
2022-12-20T11:03:33.853Z,1.02
2022-12-20T11:08:44.392Z,1.08
2022-12-20T11:13:50.134Z,1.15
2022-12-20T11:19:56.927Z,1.25
2022-12-20T11:25:07.593Z,1.41
2022-12-20T11:31:07.102Z,1.46
2022-12-20T11:36:27.835Z,1.44
2022-12-20T11:42:09.776Z,1.50
2022-12-20T11:48:34.809Z,1.57
2022-12-20T11:53:39.214Z,1.60
2022-12-20T11:59:02.467Z,1.55
2022-12-20T12:04:21.046Z,1.57
2022-12-20T12:10:03.293Z,1.53
2022-12-20T12:16:23.504Z,1.39
2022-12-20T12:21:56.367Z,1.28
2022-12-20T12:26:59.862Z,1.23
2022-12-20T12:32:33.670Z,1.18
2022-12-20T12:38:03.863Z,1.12
2022-12-20T12:43:40.901Z,1.10
2022-12-20T12:48:45.909Z,1.12
2022-12-20T12:53:53.584Z,1.15
2022-12-20T12:59:22.134Z,1.19
2022-12-20T13:04:29.744Z,1.17
2022-12-20T13:09:32.597Z,1.16
2022-12-20T13:14:41.722Z,1.11
2022-12-20T13:19:56.025Z,1.03
2022-12-20T13:25:04.148Z,0.99
2022-12-20T13:30:17.248Z,0.91
2022-12-20T13:35:26.469Z,0.82
2022-12-20T13:40:39.669Z,0.72
2022-12-20T13:45:51.960Z,0.60
2022-12-20T13:50:57.616Z,0.47
2022-12-20T13:56:48.046Z,0.40
2022-12-20T14:01:55.198Z,0.33
2022-12-20T14:07:01.901Z,0.31
2022-12-20T14:12:25.260Z,0.23
2022-12-20T14:17:44.364Z,0.15
2022-12-20T14:23:15.396Z,0.04
2022-12-20T14:28:39.813Z,-0.07
2022-12-20T14:33:42.829Z,-0.18
2022-12-20T14:38:49.837Z,-0.28
2022-12-20T14:43:58.141Z,-0.35
2022-12-20T14:49:25.196Z,-0.40
2022-12-20T15:00:18.393Z,-0.54
2022-12-20T15:05:47.188Z,-0.60
2022-12-20T15:11:10.818Z,-0.63
2022-12-20T15:16:25.277Z,-0.69
2022-12-20T15:21:43.045Z,-0.72
2022-12-20T15:26:48.047Z,-0.76
2022-12-20T15:32:07.153Z,-0.83
2022-12-20T15:37:18.360Z,-0.83
2022-12-20T15:42:23.051Z,-0.84
2022-12-20T15:47:26.500Z,-0.86
2022-12-20T15:52:29.697Z,-0.89
2022-12-20T15:57:32.676Z,-0.89
2022-12-20T16:02:35.787Z,-0.90
2022-12-20T16:07:39.158Z,-0.92
2022-12-20T16:12:42.382Z,-0.93
2022-12-20T16:17:45.210Z,-0.95
2022-12-20T16:22:48.065Z,-0.95
2022-12-20T16:27:51.917Z,-0.98
2022-12-20T16:32:54.921Z,-0.99
2022-12-20T16:38:00.246Z,-1.00
2022-12-20T16:43:03.452Z,-1.03
2022-12-20T16:48:06.617Z,-1.02
2022-12-20T16:53:15.512Z,-1.04
2022-12-20T16:58:18.255Z,-1.06
2022-12-20T17:03:21.241Z,-1.06
2022-12-20T17:13:46.819Z,-1.09
2022-12-20T17:18:53.095Z,-1.10
2022-12-20T17:23:55.926Z,-1.10
2022-12-20T17:29:00.667Z,-1.12
2022-12-20T17:34:15.601Z,-1.12
2022-12-20T17:39:18.910Z,-1.12
2022-12-20T17:44:27.760Z,-1.13
2022-12-20T17:49:31.393Z,-1.16
2022-12-20T17:54:39.905Z,-1.18
2022-12-20T17:59:43.460Z,-1.23
2022-12-20T18:04:47.369Z,-1.28
2022-12-20T18:09:50.974Z,-1.37
2022-12-20T18:14:54.029Z,-1.46
2022-12-20T18:19:57.065Z,-1.51
2022-12-20T18:25:00.609Z,-1.59
2022-12-20T18:30:04.309Z,-1.62
2022-12-20T18:35:08.354Z,-1.65
2022-12-20T18:40:11.800Z,-1.62
2022-12-20T18:45:14.754Z,-1.60
2022-12-20T18:50:17.658Z,-1.59
2022-12-20T18:55:20.486Z,-1.57
2022-12-20T19:00:23.467Z,-1.57
2022-12-20T19:05:28.617Z,-1.59
2022-12-20T19:10:33.396Z,-1.58
2022-12-20T19:15:36.381Z,-1.58
2022-12-20T19:20:40.202Z,-1.57
2022-12-20T19:25:43.420Z,-1.59
2022-12-20T19:30:46.450Z,-1.59
2022-12-20T19:35:55.863Z,-1.61
2022-12-20T19:40:59.432Z,-1.58
2022-12-20T19:46:02.663Z,-1.58
2022-12-20T19:51:15.580Z,-1.55
2022-12-20T19:56:22.808Z,-1.53
2022-12-20T20:01:27.817Z,-1.51
2022-12-20T20:06:30.944Z,-1.49
2022-12-20T20:11:34.168Z,-1.48
2022-12-20T20:16:37.965Z,-1.47
2022-12-20T20:21:41.131Z,-1.47
2022-12-20T20:26:44.167Z,-1.43
2022-12-20T20:31:47.211Z,-1.39
2022-12-20T20:36:50.122Z,-1.33
2022-12-20T20:41:52.968Z,-1.26
2022-12-20T20:46:56.017Z,-1.22
2022-12-20T20:51:58.941Z,-1.18
2022-12-20T20:57:01.613Z,-1.13
2022-12-20T21:02:05.001Z,-1.12
2022-12-20T21:07:07.982Z,-1.08
2022-12-20T21:12:11.389Z,-1.03
2022-12-20T21:17:14.473Z,-1.00
2022-12-20T21:22:17.383Z,-0.97
2022-12-20T21:27:20.312Z,-0.95
2022-12-20T21:32:23.377Z,-0.93
2022-12-20T21:37:29.266Z,-0.93
2022-12-20T21:42:32.477Z,-0.92
2022-12-20T21:47:36.048Z,-0.91
2022-12-20T21:52:40.788Z,-0.87
2022-12-20T21:57:44.060Z,-0.86
2022-12-20T22:02:47.268Z,-0.84
2022-12-20T22:07:50.201Z,-0.82
2022-12-20T22:12:53.077Z,-0.80
2022-12-20T22:17:55.756Z,-0.77
2022-12-20T22:22:58.621Z,-0.77
2022-12-20T22:28:01.538Z,-0.76
2022-12-20T22:33:04.591Z,-0.73
2022-12-20T22:38:07.434Z,-0.71
2022-12-20T22:43:10.352Z,-0.72
2022-12-20T22:48:13.171Z,-0.70
2022-12-20T22:53:16.031Z,-0.70
2022-12-20T22:58:19.082Z,-0.68
2022-12-20T23:03:22.241Z,-0.71
2022-12-20T23:08:29.795Z,-0.70
2022-12-20T23:13:51.701Z,-0.69
2022-12-20T23:18:56.359Z,-0.69
2022-12-20T23:23:59.452Z,-0.69
2022-12-20T23:29:04.336Z,-0.68
2022-12-20T23:34:08.028Z,-0.65
2022-12-20T23:39:10.922Z,-0.65
2022-12-20T23:44:13.878Z,-0.64
2022-12-20T23:49:16.913Z,-0.65
2022-12-20T23:54:21.480Z,-0.65
2022-12-20T23:59:24.667Z,-0.67
